sensor_id;sensor_type;location;lat;lon;timestamp;temperature;humidity
23405;DHT22;11875;49.356;2.718;2022-08-03T00:01:35;25.00;93.20
23405;DHT22;11875;49.356;2.718;2022-08-03T00:04:01;25.00;93.60
23405;DHT22;11875;49.356;2.718;2022-08-03T00:06:26;24.90;93.40
23405;DHT22;11875;49.356;2.718;2022-08-03T00:08:52;24.90;93.50
23405;DHT22;11875;49.356;2.718;2022-08-03T00:11:18;24.90;93.60
23405;DHT22;11875;49.356;2.718;2022-08-03T00:13:43;24.80;93.30
23405;DHT22;11875;49.356;2.718;2022-08-03T00:16:09;24.80;93.40
23405;DHT22;11875;49.356;2.718;2022-08-03T00:18:36;24.90;93.50
23405;DHT22;11875;49.356;2.718;2022-08-03T00:21:02;24.80;93.60
23405;DHT22;11875;49.356;2.718;2022-08-03T00:23:28;24.70;93.70
23405;DHT22;11875;49.356;2.718;2022-08-03T00:25:54;24.70;93.60
23405;DHT22;11875;49.356;2.718;2022-08-03T00:28:20;24.70;93.70
23405;DHT22;11875;49.356;2.718;2022-08-03T00:30:45;24.70;93.60
23405;DHT22;11875;49.356;2.718;2022-08-03T00:33:11;24.10;93.70
23405;DHT22;11875;49.356;2.718;2022-08-03T00:35:37;24.60;93.60
23405;DHT22;11875;49.356;2.718;2022-08-03T00:38:03;24.50;93.60
23405;DHT22;11875;49.356;2.718;2022-08-03T00:40:29;24.50;93.60
23405;DHT22;11875;49.356;2.718;2022-08-03T00:42:59;24.40;93.80
23405;DHT22;11875;49.356;2.718;2022-08-03T00:45:30;24.40;93.90
23405;DHT22;11875;49.356;2.718;2022-08-03T00:47:57;24.40;93.90
23405;DHT22;11875;49.356;2.718;2022-08-03T00:50:24;24.40;94.10
23405;DHT22;11875;49.356;2.718;2022-08-03T00:52:51;24.40;94.10
23405;DHT22;11875;49.356;2.718;2022-08-03T00:55:18;24.40;93.90
23405;DHT22;11875;49.356;2.718;2022-08-03T00:57:44;24.40;93.70
23405;DHT22;11875;49.356;2.718;2022-08-03T01:00:12;24.50;93.80
23405;DHT22;11875;49.356;2.718;2022-08-03T01:02:39;24.40;93.80
23405;DHT22;11875;49.356;2.718;2022-08-03T01:05:06;24.30;94.00
23405;DHT22;11875;49.356;2.718;2022-08-03T01:08:12;24.30;94.00
23405;DHT22;11875;49.356;2.718;2022-08-03T01:10:58;24.20;94.00
23405;DHT22;11875;49.356;2.718;2022-08-03T01:18:31;24.00;94.20
23405;DHT22;11875;49.356;2.718;2022-08-03T01:21:02;24.00;94.40
23405;DHT22;11875;49.356;2.718;2022-08-03T01:23:42;24.00;94.30
23405;DHT22;11875;49.356;2.718;2022-08-03T01:31:44;24.00;94.20
23405;DHT22;11875;49.356;2.718;2022-08-03T01:34:15;24.00;94.30
23405;DHT22;11875;49.356;2.718;2022-08-03T01:36:49;23.90;94.20
23405;DHT22;11875;49.356;2.718;2022-08-03T01:39:15;23.90;94.30
23405;DHT22;11875;49.356;2.718;2022-08-03T01:41:47;23.80;94.40
23405;DHT22;11875;49.356;2.718;2022-08-03T01:44:14;23.70;94.30
23405;DHT22;11875;49.356;2.718;2022-08-03T01:46:40;23.70;94.50
23405;DHT22;11875;49.356;2.718;2022-08-03T01:49:09;23.70;94.50
23405;DHT22;11875;49.356;2.718;2022-08-03T01:51:41;23.70;94.90
23405;DHT22;11875;49.356;2.718;2022-08-03T01:54:09;23.70;94.60
23405;DHT22;11875;49.356;2.718;2022-08-03T01:56:37;23.60;94.80
23405;DHT22;11875;49.356;2.718;2022-08-03T01:59:03;23.60;94.80
23405;DHT22;11875;49.356;2.718;2022-08-03T02:01:30;23.50;94.90
23405;DHT22;11875;49.356;2.718;2022-08-03T02:03:57;23.50;94.80
23405;DHT22;11875;49.356;2.718;2022-08-03T02:06:25;23.50;94.40
23405;DHT22;11875;49.356;2.718;2022-08-03T02:08:52;23.50;94.80
23405;DHT22;11875;49.356;2.718;2022-08-03T02:11:19;23.40;94.80
23405;DHT22;11875;49.356;2.718;2022-08-03T02:13:46;23.30;94.70
23405;DHT22;11875;49.356;2.718;2022-08-03T02:16:12;23.20;94.60
23405;DHT22;11875;49.356;2.718;2022-08-03T02:18:40;23.20;94.80
23405;DHT22;11875;49.356;2.718;2022-08-03T02:21:08;23.20;95.00
23405;DHT22;11875;49.356;2.718;2022-08-03T02:23:35;23.20;95.20
23405;DHT22;11875;49.356;2.718;2022-08-03T02:26:03;23.20;95.20
23405;DHT22;11875;49.356;2.718;2022-08-03T02:28:36;23.10;95.10
23405;DHT22;11875;49.356;2.718;2022-08-03T02:31:06;23.10;95.00
23405;DHT22;11875;49.356;2.718;2022-08-03T02:33:37;23.10;94.80
23405;DHT22;11875;49.356;2.718;2022-08-03T02:36:04;23.00;94.70
23405;DHT22;11875;49.356;2.718;2022-08-03T02:38:33;22.90;94.50
23405;DHT22;11875;49.356;2.718;2022-08-03T02:41:04;22.70;94.60
23405;DHT22;11875;49.356;2.718;2022-08-03T02:43:34;22.60;94.90
23405;DHT22;11875;49.356;2.718;2022-08-03T02:46:00;22.60;94.90
23405;DHT22;11875;49.356;2.718;2022-08-03T02:48:28;22.60;94.90
23405;DHT22;11875;49.356;2.718;2022-08-03T02:50:57;22.60;94.90
23405;DHT22;11875;49.356;2.718;2022-08-03T02:53:24;22.60;94.80
23405;DHT22;11875;49.356;2.718;2022-08-03T02:55:51;22.60;94.80
23405;DHT22;11875;49.356;2.718;2022-08-03T02:58:20;22.60;94.80
23405;DHT22;11875;49.356;2.718;2022-08-03T03:00:48;22.60;94.90
23405;DHT22;11875;49.356;2.718;2022-08-03T03:03:16;22.50;94.90
23405;DHT22;11875;49.356;2.718;2022-08-03T03:05:42;22.50;95.00
23405;DHT22;11875;49.356;2.718;2022-08-03T03:08:12;22.60;95.20
23405;DHT22;11875;49.356;2.718;2022-08-03T03:10:39;22.60;95.40
23405;DHT22;11875;49.356;2.718;2022-08-03T03:13:05;22.60;95.40
23405;DHT22;11875;49.356;2.718;2022-08-03T03:15:34;22.60;95.40
23405;DHT22;11875;49.356;2.718;2022-08-03T03:18:02;22.50;95.50
23405;DHT22;11875;49.356;2.718;2022-08-03T03:20:28;22.50;95.60
23405;DHT22;11875;49.356;2.718;2022-08-03T03:22:55;22.40;95.70
23405;DHT22;11875;49.356;2.718;2022-08-03T03:25:22;22.40;95.80
23405;DHT22;11875;49.356;2.718;2022-08-03T03:27:49;22.30;95.90
23405;DHT22;11875;49.356;2.718;2022-08-03T03:30:15;22.40;95.90
23405;DHT22;11875;49.356;2.718;2022-08-03T03:32:41;22.40;95.70
23405;DHT22;11875;49.356;2.718;2022-08-03T03:35:08;22.40;95.30
23405;DHT22;11875;49.356;2.718;2022-08-03T03:37:34;22.40;95.30
23405;DHT22;11875;49.356;2.718;2022-08-03T03:40:00;22.40;95.20
23405;DHT22;11875;49.356;2.718;2022-08-03T03:42:26;22.30;95.20
23405;DHT22;11875;49.356;2.718;2022-08-03T03:44:51;22.20;95.20
23405;DHT22;11875;49.356;2.718;2022-08-03T03:47:17;22.20;95.40
23405;DHT22;11875;49.356;2.718;2022-08-03T03:49:43;22.20;95.60
23405;DHT22;11875;49.356;2.718;2022-08-03T03:52:09;22.20;95.80
23405;DHT22;11875;49.356;2.718;2022-08-03T03:54:42;22.20;95.60
23405;DHT22;11875;49.356;2.718;2022-08-03T03:57:09;22.20;95.70
23405;DHT22;11875;49.356;2.718;2022-08-03T03:59:39;22.20;95.90
23405;DHT22;11875;49.356;2.718;2022-08-03T04:02:06;22.10;96.00
23405;DHT22;11875;49.356;2.718;2022-08-03T04:04:33;22.10;95.90
23405;DHT22;11875;49.356;2.718;2022-08-03T04:07:18;22.10;95.90
23405;DHT22;11875;49.356;2.718;2022-08-03T04:10:07;22.10;96.00
23405;DHT22;11875;49.356;2.718;2022-08-03T04:12:54;22.00;96.20
23405;DHT22;11875;49.356;2.718;2022-08-03T04:15:22;22.00;96.40
23405;DHT22;11875;49.356;2.718;2022-08-03T04:17:49;22.10;96.50
23405;DHT22;11875;49.356;2.718;2022-08-03T04:20:18;22.10;96.60
23405;DHT22;11875;49.356;2.718;2022-08-03T04:22:48;22.10;96.70
23405;DHT22;11875;49.356;2.718;2022-08-03T04:25:15;22.50;97.10
23405;DHT22;11875;49.356;2.718;2022-08-03T04:27:44;22.00;97.10
23405;DHT22;11875;49.356;2.718;2022-08-03T04:30:11;22.00;97.20
23405;DHT22;11875;49.356;2.718;2022-08-03T04:32:37;22.00;97.40
23405;DHT22;11875;49.356;2.718;2022-08-03T04:35:05;21.90;97.60
23405;DHT22;11875;49.356;2.718;2022-08-03T04:37:38;21.90;97.60
23405;DHT22;11875;49.356;2.718;2022-08-03T04:40:07;21.90;97.40
23405;DHT22;11875;49.356;2.718;2022-08-03T04:42:34;21.90;96.90
23405;DHT22;11875;49.356;2.718;2022-08-03T04:45:02;21.80;96.60
23405;DHT22;11875;49.356;2.718;2022-08-03T04:47:31;21.80;96.60
23405;DHT22;11875;49.356;2.718;2022-08-03T04:49:58;21.80;96.60
23405;DHT22;11875;49.356;2.718;2022-08-03T04:52:24;21.80;96.50
23405;DHT22;11875;49.356;2.718;2022-08-03T04:54:50;21.80;96.70
23405;DHT22;11875;49.356;2.718;2022-08-03T04:57:17;21.80;96.80
23405;DHT22;11875;49.356;2.718;2022-08-03T04:59:43;21.80;97.10
23405;DHT22;11875;49.356;2.718;2022-08-03T05:02:09;21.80;97.00
23405;DHT22;11875;49.356;2.718;2022-08-03T05:04:35;21.90;97.20
23405;DHT22;11875;49.356;2.718;2022-08-03T05:07:02;21.90;97.40
23405;DHT22;11875;49.356;2.718;2022-08-03T05:09:28;21.90;97.40
23405;DHT22;11875;49.356;2.718;2022-08-03T05:11:54;21.90;97.40
23405;DHT22;11875;49.356;2.718;2022-08-03T05:14:19;21.90;97.60
23405;DHT22;11875;49.356;2.718;2022-08-03T05:16:45;21.80;97.80
23405;DHT22;11875;49.356;2.718;2022-08-03T05:19:11;21.90;98.30
23405;DHT22;11875;49.356;2.718;2022-08-03T05:21:36;21.80;98.10
23405;DHT22;11875;49.356;2.718;2022-08-03T05:24:02;21.90;98.10
23405;DHT22;11875;49.356;2.718;2022-08-03T05:26:28;21.90;98.20
23405;DHT22;11875;49.356;2.718;2022-08-03T05:28:54;22.00;97.80
23405;DHT22;11875;49.356;2.718;2022-08-03T05:31:19;21.90;97.40
23405;DHT22;11875;49.356;2.718;2022-08-03T05:33:45;21.90;97.60
23405;DHT22;11875;49.356;2.718;2022-08-03T05:36:13;21.90;97.80
23405;DHT22;11875;49.356;2.718;2022-08-03T05:38:38;21.90;98.20
23405;DHT22;11875;49.356;2.718;2022-08-03T05:41:04;21.80;98.40
23405;DHT22;11875;49.356;2.718;2022-08-03T05:43:30;21.90;98.30
23405;DHT22;11875;49.356;2.718;2022-08-03T05:45:56;21.90;98.20
23405;DHT22;11875;49.356;2.718;2022-08-03T05:48:23;22.00;98.30
23405;DHT22;11875;49.356;2.718;2022-08-03T05:50:48;21.90;98.50
23405;DHT22;11875;49.356;2.718;2022-08-03T05:53:14;22.00;98.70
23405;DHT22;11875;49.356;2.718;2022-08-03T05:55:40;22.00;98.70
23405;DHT22;11875;49.356;2.718;2022-08-03T05:58:05;22.00;98.70
23405;DHT22;11875;49.356;2.718;2022-08-03T06:00:31;22.00;98.90
23405;DHT22;11875;49.356;2.718;2022-08-03T06:02:57;22.00;98.90
23405;DHT22;11875;49.356;2.718;2022-08-03T06:05:22;22.10;99.00
23405;DHT22;11875;49.356;2.718;2022-08-03T06:07:51;22.10;99.30
23405;DHT22;11875;49.356;2.718;2022-08-03T06:10:17;22.10;99.20
23405;DHT22;11875;49.356;2.718;2022-08-03T06:12:42;22.10;99.40
23405;DHT22;11875;49.356;2.718;2022-08-03T06:15:09;22.10;99.60
23405;DHT22;11875;49.356;2.718;2022-08-03T06:17:43;22.10;99.70
23405;DHT22;11875;49.356;2.718;2022-08-03T06:20:10;22.20;99.60
23405;DHT22;11875;49.356;2.718;2022-08-03T06:22:35;22.30;99.60
23405;DHT22;11875;49.356;2.718;2022-08-03T06:25:01;22.40;99.70
23405;DHT22;11875;49.356;2.718;2022-08-03T06:27:27;22.40;99.90
23405;DHT22;11875;49.356;2.718;2022-08-03T06:29:52;22.30;99.90
23405;DHT22;11875;49.356;2.718;2022-08-03T06:32:19;22.40;99.90
23405;DHT22;11875;49.356;2.718;2022-08-03T06:34:47;22.50;99.90
23405;DHT22;11875;49.356;2.718;2022-08-03T06:37:13;22.60;99.90
23405;DHT22;11875;49.356;2.718;2022-08-03T06:39:38;22.70;99.90
23405;DHT22;11875;49.356;2.718;2022-08-03T06:42:04;22.90;99.90
23405;DHT22;11875;49.356;2.718;2022-08-03T06:44:30;22.90;99.90
23405;DHT22;11875;49.356;2.718;2022-08-03T06:46:55;22.90;99.90
23405;DHT22;11875;49.356;2.718;2022-08-03T06:49:21;22.80;99.90
23405;DHT22;11875;49.356;2.718;2022-08-03T06:51:47;22.70;99.90
23405;DHT22;11875;49.356;2.718;2022-08-03T06:54:12;22.90;99.90
23405;DHT22;11875;49.356;2.718;2022-08-03T06:56:38;22.90;99.90
23405;DHT22;11875;49.356;2.718;2022-08-03T06:59:04;23.00;99.90
23405;DHT22;11875;49.356;2.718;2022-08-03T07:01:29;23.10;99.90
23405;DHT22;11875;49.356;2.718;2022-08-03T07:03:55;23.20;99.90
23405;DHT22;11875;49.356;2.718;2022-08-03T07:06:20;23.10;99.90
23405;DHT22;11875;49.356;2.718;2022-08-03T07:08:46;23.20;99.90
23405;DHT22;11875;49.356;2.718;2022-08-03T07:11:12;23.30;99.90
23405;DHT22;11875;49.356;2.718;2022-08-03T07:13:37;23.30;99.90
23405;DHT22;11875;49.356;2.718;2022-08-03T07:16:05;23.50;99.90
23405;DHT22;11875;49.356;2.718;2022-08-03T07:18:31;23.60;99.90
23405;DHT22;11875;49.356;2.718;2022-08-03T07:20:57;24.10;99.90
23405;DHT22;11875;49.356;2.718;2022-08-03T07:23:23;24.70;99.10
23405;DHT22;11875;49.356;2.718;2022-08-03T07:25:49;25.50;98.10
23405;DHT22;11875;49.356;2.718;2022-08-03T07:28:15;26.20;97.00
23405;DHT22;11875;49.356;2.718;2022-08-03T07:30:41;26.60;96.40
23405;DHT22;11875;49.356;2.718;2022-08-03T07:33:06;26.90;96.10
23405;DHT22;11875;49.356;2.718;2022-08-03T07:35:33;27.30;95.90
23405;DHT22;11875;49.356;2.718;2022-08-03T07:37:58;27.80;95.20
23405;DHT22;11875;49.356;2.718;2022-08-03T07:40:24;28.10;94.80
23405;DHT22;11875;49.356;2.718;2022-08-03T07:42:50;28.10;94.50
23405;DHT22;11875;49.356;2.718;2022-08-03T07:45:16;28.20;94.60
23405;DHT22;11875;49.356;2.718;2022-08-03T07:47:41;28.20;94.40
23405;DHT22;11875;49.356;2.718;2022-08-03T07:50:07;28.30;93.90
23405;DHT22;11875;49.356;2.718;2022-08-03T07:52:33;28.50;93.40
23405;DHT22;11875;49.356;2.718;2022-08-03T07:55:15;28.60;93.30
23405;DHT22;11875;49.356;2.718;2022-08-03T07:57:41;28.70;93.00
23405;DHT22;11875;49.356;2.718;2022-08-03T08:00:15;28.90;92.40
23405;DHT22;11875;49.356;2.718;2022-08-03T08:02:42;29.20;92.30
23405;DHT22;11875;49.356;2.718;2022-08-03T08:05:08;29.50;92.10
23405;DHT22;11875;49.356;2.718;2022-08-03T08:07:35;29.70;91.10
23405;DHT22;11875;49.356;2.718;2022-08-03T08:10:06;29.70;91.80
23405;DHT22;11875;49.356;2.718;2022-08-03T08:12:32;29.70;91.50
23405;DHT22;11875;49.356;2.718;2022-08-03T08:14:57;29.80;91.30
23405;DHT22;11875;49.356;2.718;2022-08-03T08:17:23;29.80;90.90
23405;DHT22;11875;49.356;2.718;2022-08-03T08:19:49;29.90;91.00
23405;DHT22;11875;49.356;2.718;2022-08-03T08:22:14;30.00;90.70
23405;DHT22;11875;49.356;2.718;2022-08-03T08:24:40;30.20;90.70
23405;DHT22;11875;49.356;2.718;2022-08-03T08:27:08;30.20;90.40
23405;DHT22;11875;49.356;2.718;2022-08-03T08:29:37;30.40;90.30
23405;DHT22;11875;49.356;2.718;2022-08-03T08:32:03;30.50;90.30
23405;DHT22;11875;49.356;2.718;2022-08-03T08:34:29;30.70;87.50
23405;DHT22;11875;49.356;2.718;2022-08-03T08:36:55;30.80;86.70
23405;DHT22;11875;49.356;2.718;2022-08-03T08:39:20;30.90;87.20
23405;DHT22;11875;49.356;2.718;2022-08-03T08:41:50;31.00;86.80
23405;DHT22;11875;49.356;2.718;2022-08-03T08:44:15;31.10;85.60
23405;DHT22;11875;49.356;2.718;2022-08-03T08:46:41;31.20;85.10
23405;DHT22;11875;49.356;2.718;2022-08-03T08:49:08;31.30;84.50
23405;DHT22;11875;49.356;2.718;2022-08-03T08:51:34;31.40;85.20
23405;DHT22;11875;49.356;2.718;2022-08-03T08:54:06;31.40;85.00
23405;DHT22;11875;49.356;2.718;2022-08-03T08:56:32;31.50;84.50
23405;DHT22;11875;49.356;2.718;2022-08-03T08:59:00;31.60;84.70
23405;DHT22;11875;49.356;2.718;2022-08-03T09:01:26;31.80;84.40
23405;DHT22;11875;49.356;2.718;2022-08-03T09:03:53;31.90;83.80
23405;DHT22;11875;49.356;2.718;2022-08-03T09:06:20;31.80;84.00
23405;DHT22;11875;49.356;2.718;2022-08-03T09:08:45;31.90;84.30
23405;DHT22;11875;49.356;2.718;2022-08-03T09:11:11;32.00;83.30
23405;DHT22;11875;49.356;2.718;2022-08-03T09:13:37;32.10;82.30
23405;DHT22;11875;49.356;2.718;2022-08-03T09:16:14;32.20;82.30
23405;DHT22;11875;49.356;2.718;2022-08-03T09:18:42;32.20;82.50
23405;DHT22;11875;49.356;2.718;2022-08-03T09:23:51;32.40;81.90
23405;DHT22;11875;49.356;2.718;2022-08-03T09:26:27;32.50;81.50
23405;DHT22;11875;49.356;2.718;2022-08-03T09:28:58;32.70;81.30
23405;DHT22;11875;49.356;2.718;2022-08-03T09:31:37;32.80;81.70
23405;DHT22;11875;49.356;2.718;2022-08-03T09:34:04;33.00;80.60
23405;DHT22;11875;49.356;2.718;2022-08-03T09:36:49;33.00;80.20
23405;DHT22;11875;49.356;2.718;2022-08-03T09:39:20;32.90;80.50
23405;DHT22;11875;49.356;2.718;2022-08-03T09:42:05;32.90;79.70
23405;DHT22;11875;49.356;2.718;2022-08-03T09:44:38;32.90;79.50
23405;DHT22;11875;49.356;2.718;2022-08-03T09:47:07;33.00;79.70
23405;DHT22;11875;49.356;2.718;2022-08-03T09:49:34;33.10;78.50
23405;DHT22;11875;49.356;2.718;2022-08-03T09:52:10;33.20;78.20
23405;DHT22;11875;49.356;2.718;2022-08-03T09:54:37;33.00;77.10
23405;DHT22;11875;49.356;2.718;2022-08-03T09:57:02;32.50;76.70
23405;DHT22;11875;49.356;2.718;2022-08-03T09:59:30;33.20;76.30
23405;DHT22;11875;49.356;2.718;2022-08-03T10:01:57;33.30;76.20
23405;DHT22;11875;49.356;2.718;2022-08-03T10:04:24;33.50;75.50
23405;DHT22;11875;49.356;2.718;2022-08-03T10:07:06;33.50;75.40
23405;DHT22;11875;49.356;2.718;2022-08-03T10:09:33;33.60;76.00
23405;DHT22;11875;49.356;2.718;2022-08-03T10:12:10;33.70;76.60
23405;DHT22;11875;49.356;2.718;2022-08-03T10:14:37;33.80;75.40
23405;DHT22;11875;49.356;2.718;2022-08-03T10:17:03;33.70;75.10
23405;DHT22;11875;49.356;2.718;2022-08-03T10:19:29;33.70;75.30
23405;DHT22;11875;49.356;2.718;2022-08-03T10:22:03;33.80;74.90
23405;DHT22;11875;49.356;2.718;2022-08-03T10:24:33;34.00;75.30
23405;DHT22;11875;49.356;2.718;2022-08-03T10:27:03;34.00;74.30
23405;DHT22;11875;49.356;2.718;2022-08-03T10:29:36;33.90;73.20
23405;DHT22;11875;49.356;2.718;2022-08-03T10:32:03;33.90;72.70
23405;DHT22;11875;49.356;2.718;2022-08-03T10:34:34;34.00;72.00
23405;DHT22;11875;49.356;2.718;2022-08-03T10:37:08;34.20;72.50
23405;DHT22;11875;49.356;2.718;2022-08-03T10:39:35;34.00;72.50
23405;DHT22;11875;49.356;2.718;2022-08-03T10:42:01;34.00;72.90
23405;DHT22;11875;49.356;2.718;2022-08-03T10:44:36;34.10;72.70
23405;DHT22;11875;49.356;2.718;2022-08-03T10:47:04;34.00;72.40
23405;DHT22;11875;49.356;2.718;2022-08-03T10:49:30;34.00;72.40
23405;DHT22;11875;49.356;2.718;2022-08-03T10:51:57;34.10;72.00
23405;DHT22;11875;49.356;2.718;2022-08-03T10:54:43;34.40;71.80
23405;DHT22;11875;49.356;2.718;2022-08-03T10:57:48;34.40;71.30
23405;DHT22;11875;49.356;2.718;2022-08-03T11:00:16;34.70;71.30
23405;DHT22;11875;49.356;2.718;2022-08-03T11:03:02;34.80;71.00
23405;DHT22;11875;49.356;2.718;2022-08-03T11:05:29;34.70;70.80
23405;DHT22;11875;49.356;2.718;2022-08-03T11:10:48;34.40;70.90
23405;DHT22;11875;49.356;2.718;2022-08-03T11:13:20;34.30;71.10
23405;DHT22;11875;49.356;2.718;2022-08-03T11:15:50;34.40;71.20
23405;DHT22;11875;49.356;2.718;2022-08-03T11:18:16;34.60;71.00
23405;DHT22;11875;49.356;2.718;2022-08-03T11:23:10;34.70;70.60
23405;DHT22;11875;49.356;2.718;2022-08-03T11:26:14;34.70;70.20
23405;DHT22;11875;49.356;2.718;2022-08-03T11:28:42;34.60;70.00
23405;DHT22;11875;49.356;2.718;2022-08-03T11:39:45;34.90;70.10
23405;DHT22;11875;49.356;2.718;2022-08-03T11:44:52;35.00;69.30
23405;DHT22;11875;49.356;2.718;2022-08-03T11:47:19;34.80;69.50
23405;DHT22;11875;49.356;2.718;2022-08-03T11:49:49;34.90;69.00
23405;DHT22;11875;49.356;2.718;2022-08-03T11:52:16;34.80;68.90
23405;DHT22;11875;49.356;2.718;2022-08-03T11:54:42;34.90;68.70
23405;DHT22;11875;49.356;2.718;2022-08-03T11:57:08;34.90;67.70
23405;DHT22;11875;49.356;2.718;2022-08-03T11:59:35;35.00;67.40
23405;DHT22;11875;49.356;2.718;2022-08-03T12:02:09;35.30;68.20
23405;DHT22;11875;49.356;2.718;2022-08-03T12:04:56;35.40;66.90
23405;DHT22;11875;49.356;2.718;2022-08-03T12:07:27;35.30;66.90
23405;DHT22;11875;49.356;2.718;2022-08-03T12:10:13;35.30;66.90
23405;DHT22;11875;49.356;2.718;2022-08-03T12:12:40;35.60;66.90
23405;DHT22;11875;49.356;2.718;2022-08-03T12:15:08;35.50;67.40
23405;DHT22;11875;49.356;2.718;2022-08-03T12:17:39;35.70;67.10
23405;DHT22;11875;49.356;2.718;2022-08-03T12:20:08;35.90;66.80
23405;DHT22;11875;49.356;2.718;2022-08-03T12:22:38;36.00;67.10
23405;DHT22;11875;49.356;2.718;2022-08-03T12:25:07;36.00;65.70
23405;DHT22;11875;49.356;2.718;2022-08-03T12:27:34;35.90;65.80
23405;DHT22;11875;49.356;2.718;2022-08-03T12:30:00;35.90;66.10
23405;DHT22;11875;49.356;2.718;2022-08-03T12:32:27;36.00;64.30
23405;DHT22;11875;49.356;2.718;2022-08-03T12:34:55;36.10;64.40
23405;DHT22;11875;49.356;2.718;2022-08-03T12:37:25;36.20;64.60
23405;DHT22;11875;49.356;2.718;2022-08-03T12:39:54;36.00;64.30
23405;DHT22;11875;49.356;2.718;2022-08-03T12:42:19;35.90;64.60
23405;DHT22;11875;49.356;2.718;2022-08-03T12:44:45;35.90;64.90
23405;DHT22;11875;49.356;2.718;2022-08-03T12:47:13;36.00;65.00
23405;DHT22;11875;49.356;2.718;2022-08-03T12:49:51;36.20;65.20
23405;DHT22;11875;49.356;2.718;2022-08-03T12:52:19;36.10;63.80
23405;DHT22;11875;49.356;2.718;2022-08-03T12:54:55;36.00;64.70
23405;DHT22;11875;49.356;2.718;2022-08-03T12:57:21;36.30;64.10
23405;DHT22;11875;49.356;2.718;2022-08-03T12:59:47;36.10;64.60
23405;DHT22;11875;49.356;2.718;2022-08-03T13:02:24;36.40;63.50
23405;DHT22;11875;49.356;2.718;2022-08-03T13:04:51;36.50;63.50
23405;DHT22;11875;49.356;2.718;2022-08-03T13:07:18;36.40;63.30
23405;DHT22;11875;49.356;2.718;2022-08-03T13:12:15;36.20;64.10
23405;DHT22;11875;49.356;2.718;2022-08-03T13:14:43;36.30;64.30
23405;DHT22;11875;49.356;2.718;2022-08-03T13:17:09;36.10;63.70
23405;DHT22;11875;49.356;2.718;2022-08-03T13:19:35;36.00;64.30
23405;DHT22;11875;49.356;2.718;2022-08-03T13:22:23;36.10;63.70
23405;DHT22;11875;49.356;2.718;2022-08-03T13:24:50;36.30;63.50
23405;DHT22;11875;49.356;2.718;2022-08-03T13:27:18;36.30;63.30
23405;DHT22;11875;49.356;2.718;2022-08-03T13:29:43;36.00;63.70
23405;DHT22;11875;49.356;2.718;2022-08-03T13:32:09;36.00;63.60
23405;DHT22;11875;49.356;2.718;2022-08-03T13:34:36;36.10;63.50
23405;DHT22;11875;49.356;2.718;2022-08-03T13:37:01;36.30;62.90
23405;DHT22;11875;49.356;2.718;2022-08-03T13:39:27;36.50;61.80
23405;DHT22;11875;49.356;2.718;2022-08-03T13:41:53;36.60;61.80
23405;DHT22;11875;49.356;2.718;2022-08-03T13:44:19;36.50;61.60
23405;DHT22;11875;49.356;2.718;2022-08-03T13:46:48;36.50;62.10
23405;DHT22;11875;49.356;2.718;2022-08-03T13:49:13;36.70;62.00
23405;DHT22;11875;49.356;2.718;2022-08-03T13:51:39;36.90;61.60
23405;DHT22;11875;49.356;2.718;2022-08-03T13:54:06;37.30;61.70
23405;DHT22;11875;49.356;2.718;2022-08-03T13:56:31;37.30;60.50
23405;DHT22;11875;49.356;2.718;2022-08-03T13:58:57;37.10;61.40
23405;DHT22;11875;49.356;2.718;2022-08-03T14:01:24;37.20;61.20
23405;DHT22;11875;49.356;2.718;2022-08-03T14:03:49;37.00;61.70
23405;DHT22;11875;49.356;2.718;2022-08-03T14:06:23;36.70;60.90
23405;DHT22;11875;49.356;2.718;2022-08-03T14:08:49;36.80;61.80
23405;DHT22;11875;49.356;2.718;2022-08-03T14:11:16;37.10;60.60
23405;DHT22;11875;49.356;2.718;2022-08-03T14:13:42;37.20;60.40
23405;DHT22;11875;49.356;2.718;2022-08-03T14:16:08;37.20;60.70
23405;DHT22;11875;49.356;2.718;2022-08-03T14:18:34;37.20;60.00
23405;DHT22;11875;49.356;2.718;2022-08-03T14:21:04;37.40;60.40
23405;DHT22;11875;49.356;2.718;2022-08-03T14:23:30;37.60;60.10
23405;DHT22;11875;49.356;2.718;2022-08-03T14:25:58;37.30;59.00
23405;DHT22;11875;49.356;2.718;2022-08-03T14:28:24;37.10;59.60
23405;DHT22;11875;49.356;2.718;2022-08-03T14:30:53;37.50;59.70
23405;DHT22;11875;49.356;2.718;2022-08-03T14:33:20;37.60;59.50
23405;DHT22;11875;49.356;2.718;2022-08-03T14:35:47;37.20;59.30
23405;DHT22;11875;49.356;2.718;2022-08-03T14:38:13;37.10;59.90
23405;DHT22;11875;49.356;2.718;2022-08-03T14:40:39;37.00;59.50
23405;DHT22;11875;49.356;2.718;2022-08-03T14:43:04;37.10;59.80
23405;DHT22;11875;49.356;2.718;2022-08-03T14:45:30;36.90;59.50
23405;DHT22;11875;49.356;2.718;2022-08-03T14:47:56;36.90;59.70
23405;DHT22;11875;49.356;2.718;2022-08-03T14:50:24;36.90;59.70
23405;DHT22;11875;49.356;2.718;2022-08-03T14:52:50;37.00;59.80
23405;DHT22;11875;49.356;2.718;2022-08-03T14:55:16;37.20;60.10
23405;DHT22;11875;49.356;2.718;2022-08-03T14:57:42;37.50;60.40
23405;DHT22;11875;49.356;2.718;2022-08-03T15:00:08;37.40;59.70
23405;DHT22;11875;49.356;2.718;2022-08-03T15:02:34;37.40;59.90
23405;DHT22;11875;49.356;2.718;2022-08-03T15:04:59;37.50;60.00
23405;DHT22;11875;49.356;2.718;2022-08-03T15:07:25;37.80;60.10
23405;DHT22;11875;49.356;2.718;2022-08-03T15:09:50;38.00;59.50
23405;DHT22;11875;49.356;2.718;2022-08-03T15:12:16;37.90;58.60
23405;DHT22;11875;49.356;2.718;2022-08-03T15:14:42;37.80;59.10
23405;DHT22;11875;49.356;2.718;2022-08-03T15:17:07;37.70;58.70
23405;DHT22;11875;49.356;2.718;2022-08-03T15:19:33;38.00;58.80
23405;DHT22;11875;49.356;2.718;2022-08-03T15:21:59;37.90;58.10
23405;DHT22;11875;49.356;2.718;2022-08-03T15:24:25;37.90;57.60
23405;DHT22;11875;49.356;2.718;2022-08-03T15:26:51;38.20;58.00
23405;DHT22;11875;49.356;2.718;2022-08-03T15:29:17;38.30;57.80
23405;DHT22;11875;49.356;2.718;2022-08-03T15:31:43;38.30;58.10
23405;DHT22;11875;49.356;2.718;2022-08-03T15:34:08;38.30;58.00
23405;DHT22;11875;49.356;2.718;2022-08-03T15:36:36;38.50;58.00
23405;DHT22;11875;49.356;2.718;2022-08-03T15:39:02;38.40;57.70
23405;DHT22;11875;49.356;2.718;2022-08-03T15:41:28;38.10;58.30
23405;DHT22;11875;49.356;2.718;2022-08-03T15:43:54;38.20;58.10
23405;DHT22;11875;49.356;2.718;2022-08-03T15:46:20;38.20;57.40
23405;DHT22;11875;49.356;2.718;2022-08-03T15:48:46;38.40;57.40
23405;DHT22;11875;49.356;2.718;2022-08-03T15:51:12;38.30;57.70
23405;DHT22;11875;49.356;2.718;2022-08-03T15:53:38;38.40;57.30
23405;DHT22;11875;49.356;2.718;2022-08-03T15:56:04;38.50;56.70
23405;DHT22;11875;49.356;2.718;2022-08-03T15:58:32;38.30;56.90
23405;DHT22;11875;49.356;2.718;2022-08-03T16:00:59;38.30;56.50
23405;DHT22;11875;49.356;2.718;2022-08-03T16:03:26;38.40;56.80
23405;DHT22;11875;49.356;2.718;2022-08-03T16:05:53;38.40;56.20
23405;DHT22;11875;49.356;2.718;2022-08-03T16:08:19;38.50;56.60